Jennings, Mississippi
Current Conditions -  °F | °C
As of 12:53 PM on Friday 28 Nov 2014 (Local Time) from KMCB Reporting Station
Clear Clear  
Wind Chill: 56°   Ceiling: Unl
Heat Index: 56°   Visibility: 10mi
Dew Point: 26°   Wind: 5mph
Humidity: 32%   Direction: NA
Pressure: 30.33"   Gusts: NA
Location:  31.1022°N, 90.5285°W
Report Text: KMCB 281853Z AUTO VRB04KT 10SM CLR 13/M03 A3033 RMK AO2 SLP268 T01331033
Loading
Personal Weather Stations






























Interactive Weather Map New forecast layout! Learn more

10-Day Weather Forecast

Advertisements
Track Severe Weather on mobile